createdAt,value
2022-10-25T00:00:39.845Z,3.17
2022-10-25T00:02:42.873Z,2.30
2022-10-25T00:04:45.957Z,2.33
2022-10-25T00:06:50.315Z,2.33
2022-10-25T00:08:53.611Z,2.40
2022-10-25T00:10:56.502Z,2.60
2022-10-25T00:12:59.355Z,2.17
2022-10-25T00:15:04.791Z,3.60
2022-10-25T00:17:09.355Z,2.03
2022-10-25T00:19:12.372Z,2.67
2022-10-25T00:21:15.229Z,2.30
2022-10-25T00:23:19.762Z,3.53
2022-10-25T00:25:22.802Z,2.10
2022-10-25T00:27:25.752Z,2.30
2022-10-25T00:29:28.951Z,2.30
2022-10-25T00:31:31.796Z,2.00
2022-10-25T00:33:35.434Z,1.80
2022-10-25T00:35:38.294Z,2.53
2022-10-25T00:37:41.260Z,1.80
2022-10-25T00:39:46.627Z,2.00
2022-10-25T00:41:49.669Z,2.08
2022-10-25T00:43:54.208Z,2.23
2022-10-25T00:45:57.712Z,3.13
2022-10-25T00:48:02.936Z,2.10
2022-10-25T00:50:12.868Z,2.67
2022-10-25T00:52:15.714Z,2.17
2022-10-25T00:56:35.053Z,2.45
2022-10-25T00:58:39.329Z,1.92
2022-10-25T01:00:42.521Z,1.90
2022-10-25T01:02:45.991Z,2.15
2022-10-25T01:04:50.634Z,1.80
2022-10-25T01:06:54.133Z,2.45
2022-10-25T01:08:57.062Z,2.35
2022-10-25T01:10:59.956Z,2.13
2022-10-25T01:13:05.037Z,1.77
2022-10-25T01:15:08.999Z,1.77
2022-10-25T01:17:15.005Z,1.95
2022-10-25T01:21:47.492Z,2.35
2022-10-25T01:24:07.047Z,2.33
2022-10-25T01:26:25.198Z,1.80
2022-10-25T01:28:36.016Z,2.03
2022-10-25T01:31:04.094Z,2.35
2022-10-25T01:33:15.215Z,2.03
2022-10-25T01:35:22.328Z,2.28
2022-10-25T01:37:28.269Z,2.08
2022-10-25T01:39:33.808Z,1.95
2022-10-25T01:41:44.260Z,1.88
2022-10-25T01:43:58.700Z,1.83
2022-10-25T01:46:10.751Z,1.85
2022-10-25T01:48:15.817Z,2.13
2022-10-25T01:50:22.056Z,2.00
2022-10-25T01:52:26.166Z,1.52
2022-10-25T01:54:30.245Z,2.03
2022-10-25T01:56:48.115Z,1.92
2022-10-25T01:59:01.669Z,2.00
2022-10-25T02:01:19.567Z,2.10
2022-10-25T02:03:29.533Z,2.05
2022-10-25T02:05:39.622Z,2.35
2022-10-25T02:07:44.072Z,2.28
2022-10-25T02:09:53.525Z,1.80
2022-10-25T02:11:57.579Z,2.42
2022-10-25T02:14:08.466Z,2.30
2022-10-25T02:16:17.788Z,1.85
2022-10-25T02:18:23.554Z,1.77
2022-10-25T02:20:27.512Z,2.60
2022-10-25T02:22:31.875Z,1.55
2022-10-25T02:24:35.623Z,2.00
2022-10-25T02:26:40.277Z,1.77
2022-10-25T02:28:43.318Z,2.35
2022-10-25T02:30:46.429Z,2.10
2022-10-25T02:32:50.887Z,1.92
2022-10-25T02:34:56.148Z,1.70
2022-10-25T02:36:59.305Z,1.63
2022-10-25T02:39:04.286Z,1.63
2022-10-25T02:47:15.988Z,1.80
2022-10-25T02:49:20.703Z,1.70
2022-10-25T02:51:25.110Z,2.40
2022-10-25T02:53:28.008Z,1.77
2022-10-25T02:55:31.103Z,2.13
2022-10-25T02:57:35.151Z,1.85
2022-10-25T02:59:37.953Z,1.92
2022-10-25T03:01:40.808Z,2.33
2022-10-25T03:03:53.225Z,2.03
2022-10-25T03:05:57.497Z,1.77
2022-10-25T03:08:00.400Z,2.00
2022-10-25T03:10:03.304Z,1.98
2022-10-25T03:12:06.668Z,2.17
2022-10-25T03:14:09.597Z,1.92
2022-10-25T03:16:12.824Z,2.47
2022-10-25T03:18:16.329Z,1.95
2022-10-25T03:20:19.186Z,1.63
2022-10-25T03:22:23.695Z,2.45
2022-10-25T03:24:27.940Z,2.25
2022-10-25T03:26:30.908Z,1.88
2022-10-25T03:28:33.813Z,2.33
2022-10-25T03:30:36.877Z,1.88
2022-10-25T03:32:39.777Z,2.10
2022-10-25T03:34:42.696Z,1.60
2022-10-25T03:36:45.614Z,2.33
2022-10-25T03:38:49.859Z,2.28
2022-10-25T03:40:52.744Z,2.25
2022-10-25T03:42:55.739Z,1.83
2022-10-25T03:44:58.704Z,2.38
2022-10-25T03:47:01.618Z,1.65
2022-10-25T03:49:04.704Z,2.17
2022-10-25T03:51:08.070Z,2.30
2022-10-25T03:53:11.930Z,1.63
2022-10-25T03:55:16.195Z,2.20
2022-10-25T03:57:19.157Z,2.05
2022-10-25T03:59:22.411Z,1.83
2022-10-25T04:01:25.495Z,2.30
2022-10-25T04:03:31.138Z,1.70
2022-10-25T04:05:34.068Z,1.73
2022-10-25T04:07:39.113Z,2.10
2022-10-25T04:09:42.097Z,2.20
2022-10-25T04:11:46.360Z,2.40
2022-10-25T04:13:49.334Z,2.03
2022-10-25T04:15:52.332Z,1.92
2022-10-25T04:17:55.252Z,2.00
2022-10-25T04:19:58.234Z,2.20
2022-10-25T04:22:02.197Z,2.00
2022-10-25T04:24:05.566Z,1.95
2022-10-25T04:26:08.543Z,1.67
2022-10-25T04:28:13.818Z,1.70
2022-10-25T04:30:16.726Z,2.17
2022-10-25T04:34:27.377Z,2.20
2022-10-25T04:36:30.831Z,1.60
2022-10-25T04:38:33.778Z,1.80
2022-10-25T04:40:36.930Z,1.80
2022-10-25T04:42:39.803Z,2.30
2022-10-25T04:44:44.382Z,2.78
2022-10-25T04:46:48.876Z,1.97
2022-10-25T04:48:52.063Z,2.13
2022-10-25T04:50:55.897Z,1.93
2022-10-25T04:52:58.763Z,2.60
2022-10-25T04:55:01.884Z,2.67
2022-10-25T04:57:07.156Z,2.53
2022-10-25T04:59:10.686Z,2.20
2022-10-25T05:01:17.189Z,2.13
2022-10-25T05:03:22.916Z,2.40
2022-10-25T05:05:26.567Z,2.50
2022-10-25T05:07:29.479Z,2.07
2022-10-25T05:09:32.515Z,2.10
2022-10-25T05:13:45.018Z,2.37
2022-10-25T05:15:55.342Z,1.92
2022-10-25T05:17:59.689Z,2.10
2022-10-25T05:20:02.571Z,1.80
2022-10-25T05:22:05.521Z,2.78
2022-10-25T05:24:08.798Z,2.30
2022-10-25T05:26:14.222Z,1.73
2022-10-25T05:28:17.239Z,1.70
2022-10-25T05:30:20.309Z,2.15
2022-10-25T05:32:23.236Z,2.08
2022-10-25T05:34:27.662Z,2.77
2022-10-25T05:36:32.742Z,1.88
2022-10-25T05:38:37.678Z,2.23
2022-10-25T05:40:40.847Z,1.77
2022-10-25T05:42:48.909Z,2.28
2022-10-25T05:44:51.991Z,1.93
2022-10-25T05:46:55.381Z,1.80
2022-10-25T05:48:59.721Z,2.55
2022-10-25T05:51:37.778Z,2.25
2022-10-25T05:53:45.790Z,1.70
2022-10-25T05:55:49.503Z,2.23
2022-10-25T05:57:52.782Z,2.80
2022-10-25T05:59:55.689Z,1.97
2022-10-25T06:01:58.820Z,2.33
2022-10-25T06:04:02.493Z,2.30
2022-10-25T06:06:08.124Z,2.33
2022-10-25T06:08:12.303Z,2.40
2022-10-25T06:10:15.557Z,3.50
2022-10-25T06:12:18.646Z,1.92
2022-10-25T06:14:21.489Z,1.90
2022-10-25T06:16:24.860Z,2.50
2022-10-25T06:18:28.201Z,2.45
2022-10-25T06:20:31.153Z,1.85
2022-10-25T06:22:34.172Z,1.87
2022-10-25T06:24:40.854Z,3.22
2022-10-25T06:26:43.693Z,2.05
2022-10-25T06:28:46.605Z,2.40
2022-10-25T06:30:49.441Z,2.15
2022-10-25T06:32:52.346Z,2.17
2022-10-25T06:34:55.276Z,3.08
2022-10-25T06:36:58.204Z,3.40
2022-10-25T06:39:05.316Z,2.45
2022-10-25T06:41:13.755Z,2.50
2022-10-25T06:43:16.688Z,1.73
2022-10-25T06:45:19.588Z,2.80
2022-10-25T06:47:22.470Z,2.38
2022-10-25T06:49:25.603Z,1.70
2022-10-25T06:51:29.817Z,2.00
2022-10-25T06:53:33.277Z,2.45
2022-10-25T06:55:36.156Z,3.67
2022-10-25T06:57:40.576Z,2.28
2022-10-25T06:59:43.447Z,3.47
2022-10-25T07:01:46.412Z,2.13
2022-10-25T07:03:50.661Z,2.57
2022-10-25T07:05:53.594Z,3.30
2022-10-25T07:07:56.750Z,2.33
2022-10-25T07:09:59.601Z,1.60
2022-10-25T07:12:02.513Z,2.47
2022-10-25T07:14:07.051Z,2.40
2022-10-25T07:16:11.561Z,2.78
2022-10-25T07:18:14.495Z,2.60
2022-10-25T07:20:17.432Z,2.73
2022-10-25T07:22:20.359Z,2.50
2022-10-25T07:24:23.314Z,3.08
2022-10-25T07:26:27.683Z,2.60
2022-10-25T07:28:30.806Z,3.07
2022-10-25T07:30:35.234Z,3.10
2022-10-25T07:32:41.603Z,3.03
2022-10-25T07:34:45.687Z,2.67
2022-10-25T07:36:50.981Z,2.40
2022-10-25T07:38:53.945Z,2.75
2022-10-25T07:40:57.861Z,3.38
2022-10-25T07:43:00.784Z,2.80
2022-10-25T07:45:03.650Z,2.00
2022-10-25T07:47:07.936Z,2.20
2022-10-25T07:49:11.372Z,2.00
2022-10-25T07:51:17.565Z,2.60
2022-10-25T07:53:20.518Z,2.40
2022-10-25T07:55:23.362Z,3.00
2022-10-25T07:57:26.241Z,2.38
2022-10-25T07:59:29.171Z,2.20
2022-10-25T08:01:32.436Z,2.22
2022-10-25T08:03:37.026Z,3.20
2022-10-25T08:05:39.993Z,2.58
2022-10-25T08:07:42.909Z,2.20
2022-10-25T08:09:45.744Z,1.92
2022-10-25T08:11:48.705Z,2.03
2022-10-25T08:13:51.874Z,1.63
2022-10-25T08:15:56.062Z,1.63
2022-10-25T08:17:59.927Z,2.30
2022-10-25T08:20:04.335Z,1.70
2022-10-25T08:22:07.798Z,1.90
2022-10-25T08:24:11.230Z,2.10
2022-10-25T08:26:14.199Z,2.28
2022-10-25T08:28:17.157Z,2.50
2022-10-25T08:30:20.428Z,2.13
2022-10-25T08:32:23.408Z,2.08
2022-10-25T08:34:28.421Z,2.17
2022-10-25T08:36:35.206Z,2.22
2022-10-25T08:38:38.101Z,2.67
2022-10-25T08:40:50.146Z,1.90
2022-10-25T08:43:02.502Z,2.03
2022-10-25T08:45:11.115Z,2.65
2022-10-25T08:47:18.371Z,1.75
2022-10-25T08:49:25.537Z,2.03
2022-10-25T08:51:31.150Z,1.85
2022-10-25T08:53:39.595Z,2.40
2022-10-25T08:55:58.787Z,1.92
2022-10-25T08:58:08.755Z,3.10
2022-10-25T09:00:17.379Z,2.40
2022-10-25T09:02:26.483Z,2.00
2022-10-25T09:04:30.681Z,1.95
2022-10-25T09:06:38.084Z,2.40
2022-10-25T09:08:51.417Z,2.53
2022-10-25T09:10:58.718Z,1.70
2022-10-25T09:13:10.615Z,1.80
2022-10-25T09:15:18.443Z,2.35
2022-10-25T09:17:22.620Z,1.70
2022-10-25T09:19:34.032Z,2.08
2022-10-25T09:21:43.997Z,2.65
2022-10-25T09:23:58.823Z,1.70
2022-10-25T09:26:06.908Z,1.85
2022-10-25T09:28:12.775Z,2.15
2022-10-25T09:30:15.792Z,2.08
2022-10-25T09:32:24.822Z,2.08
2022-10-25T09:34:32.888Z,1.92
2022-10-25T09:36:39.775Z,2.50
2022-10-25T09:38:46.499Z,1.60
2022-10-25T09:40:52.486Z,2.15
2022-10-25T09:42:57.721Z,1.80
2022-10-25T09:45:03.363Z,2.00
2022-10-25T09:47:14.502Z,1.83
2022-10-25T09:49:24.229Z,2.15
2022-10-25T09:51:34.706Z,1.63
2022-10-25T09:53:40.215Z,1.35
2022-10-25T09:55:50.387Z,1.40
2022-10-25T09:57:53.393Z,2.10
2022-10-25T09:59:56.426Z,1.70
2022-10-25T10:01:59.773Z,1.90
2022-10-25T10:04:21.373Z,1.95
2022-10-25T10:06:27.664Z,1.75
2022-10-25T10:08:33.802Z,1.75
2022-10-25T10:10:36.933Z,2.15
2022-10-25T10:12:45.471Z,1.65
2022-10-25T10:14:54.750Z,1.95
2022-10-25T10:16:59.173Z,2.35
2022-10-25T10:19:16.193Z,2.00
2022-10-25T10:21:20.247Z,1.90
2022-10-25T10:23:23.576Z,1.98
2022-10-25T10:25:28.429Z,2.25
2022-10-25T10:27:32.902Z,1.98
2022-10-25T10:29:39.739Z,2.30
2022-10-25T10:31:46.278Z,1.70
2022-10-25T10:33:50.471Z,1.40
2022-10-25T10:35:57.666Z,1.60
2022-10-25T10:38:23.100Z,1.33
2022-10-25T10:40:26.194Z,1.50
2022-10-25T10:42:35.235Z,1.80
2022-10-25T10:44:39.618Z,2.03
2022-10-25T10:46:45.975Z,1.83
2022-10-25T10:48:54.623Z,1.80
2022-10-25T10:50:58.085Z,1.85
2022-10-25T10:53:05.164Z,2.10
2022-10-25T10:55:17.857Z,1.52
2022-10-25T10:57:26.301Z,1.60
2022-10-25T10:59:45.095Z,1.50
2022-10-25T11:01:48.155Z,1.88
2022-10-25T11:04:00.016Z,1.90
2022-10-25T11:06:08.066Z,1.75
2022-10-25T11:08:19.473Z,2.40
2022-10-25T11:10:26.343Z,1.85
2022-10-25T11:12:29.308Z,1.80
2022-10-25T11:14:32.285Z,1.75
2022-10-25T11:16:46.712Z,1.50
2022-10-25T11:18:55.297Z,1.80
2022-10-25T11:21:02.315Z,1.70
2022-10-25T11:23:09.636Z,1.67
2022-10-25T11:25:23.444Z,2.10
2022-10-25T11:27:35.075Z,2.28
2022-10-25T11:29:57.394Z,1.50
2022-10-25T11:32:08.763Z,2.28
2022-10-25T11:34:20.859Z,2.00
2022-10-25T11:36:32.467Z,2.03
2022-10-25T11:38:47.492Z,1.92
2022-10-25T11:40:58.667Z,2.97
2022-10-25T11:43:11.846Z,1.63
2022-10-25T11:45:23.876Z,1.85
2022-10-25T11:47:34.522Z,1.70
2022-10-25T11:49:48.103Z,2.00
2022-10-25T11:52:06.057Z,1.38
2022-10-25T11:54:18.774Z,2.13
2022-10-25T11:56:29.040Z,2.10
2022-10-25T11:58:42.024Z,2.20
2022-10-25T12:00:50.655Z,1.48
2022-10-25T12:03:09.475Z,1.60
2022-10-25T12:05:25.823Z,1.60
2022-10-25T12:07:32.606Z,1.50
2022-10-25T12:09:42.226Z,1.92
2022-10-25T12:11:49.620Z,2.35
2022-10-25T12:13:55.503Z,1.40
2022-10-25T12:16:00.027Z,1.25
2022-10-25T12:18:05.574Z,1.95
2022-10-25T12:20:17.106Z,1.90
2022-10-25T12:22:23.552Z,1.80
2022-10-25T12:24:31.157Z,1.90
2022-10-25T12:26:36.762Z,1.25
2022-10-25T12:28:45.995Z,1.27
2022-10-25T12:30:52.321Z,1.10
2022-10-25T12:32:59.183Z,1.20
2022-10-25T12:35:07.297Z,1.17
2022-10-25T12:37:15.202Z,2.20
2022-10-25T12:39:21.472Z,1.38
2022-10-25T12:41:26.182Z,1.98
2022-10-25T12:43:34.283Z,1.40
2022-10-25T12:45:57.441Z,2.60
2022-10-25T12:48:10.725Z,2.08
2022-10-25T12:50:35.071Z,1.63
2022-10-25T12:52:40.093Z,1.40
2022-10-25T12:54:53.454Z,1.40
2022-10-25T12:57:03.361Z,1.70
2022-10-25T12:59:10.823Z,2.05
2022-10-25T13:01:30.312Z,1.77
2022-10-25T13:03:59.200Z,0.98
2022-10-25T13:06:27.137Z,1.30
2022-10-25T13:08:30.385Z,1.83
2022-10-25T13:10:35.566Z,1.90
2022-10-25T13:12:38.487Z,1.15
2022-10-25T13:14:46.230Z,1.20
2022-10-25T13:16:49.430Z,1.33
2022-10-25T13:19:49.329Z,1.65
2022-10-25T13:22:36.021Z,1.30
2022-10-25T13:24:43.554Z,1.10
2022-10-25T13:27:30.839Z,1.55
2022-10-25T13:29:49.169Z,1.10
2022-10-25T13:31:59.677Z,1.48
2022-10-25T13:34:31.566Z,1.42
2022-10-25T13:36:48.137Z,1.77
2022-10-25T13:39:04.623Z,1.27
2022-10-25T13:41:12.455Z,1.70
2022-10-25T13:43:20.449Z,1.83
2022-10-25T13:45:31.300Z,1.42
2022-10-25T13:47:39.573Z,1.73
2022-10-25T13:49:44.324Z,1.67
2022-10-25T13:51:48.129Z,1.25
2022-10-25T13:53:54.496Z,1.40
2022-10-25T13:56:00.385Z,1.48
2022-10-25T13:58:43.492Z,1.70
2022-10-25T14:00:51.644Z,1.70
2022-10-25T14:03:35.873Z,1.63
2022-10-25T14:06:10.310Z,1.65
2022-10-25T14:08:18.487Z,1.88
2022-10-25T14:10:27.385Z,1.55
2022-10-25T14:12:30.826Z,1.70
2022-10-25T14:14:36.574Z,1.90
2022-10-25T14:16:45.256Z,1.52
2022-10-25T14:18:48.551Z,1.60
2022-10-25T14:20:55.357Z,2.08
2022-10-25T14:23:00.666Z,1.70
2022-10-25T14:25:06.477Z,1.85
2022-10-25T14:27:28.155Z,2.00
2022-10-25T14:29:33.233Z,2.10
2022-10-25T14:31:36.207Z,2.00
2022-10-25T14:33:45.718Z,2.20
2022-10-25T14:35:50.390Z,1.75
2022-10-25T14:37:53.331Z,1.85
2022-10-25T14:39:56.764Z,1.80
2022-10-25T14:42:02.042Z,1.85
2022-10-25T14:44:23.832Z,1.60
2022-10-25T14:46:30.345Z,1.67
2022-10-25T14:48:33.988Z,2.00
2022-10-25T14:50:40.040Z,2.15
2022-10-25T14:52:45.108Z,2.35
2022-10-25T14:54:55.206Z,1.92
2022-10-25T14:57:00.047Z,2.35
2022-10-25T14:59:05.148Z,1.77
2022-10-25T15:01:12.093Z,1.90
2022-10-25T15:03:18.425Z,2.10
2022-10-25T15:05:23.303Z,2.00
2022-10-25T15:07:30.779Z,1.88
2022-10-25T15:09:42.707Z,2.00
2022-10-25T15:12:07.847Z,2.10
2022-10-25T15:14:17.674Z,1.85
2022-10-25T15:16:34.923Z,2.05
2022-10-25T15:18:39.200Z,1.75
2022-10-25T15:20:42.898Z,1.92
2022-10-25T15:22:48.249Z,2.40
2022-10-25T15:24:51.465Z,2.22
2022-10-25T15:26:58.491Z,1.95
2022-10-25T15:29:02.692Z,2.15
2022-10-25T15:31:07.541Z,2.15
2022-10-25T15:33:15.291Z,2.08
2022-10-25T15:35:24.650Z,2.00
2022-10-25T15:37:31.082Z,2.08
2022-10-25T15:39:34.178Z,2.05
2022-10-25T15:41:37.153Z,1.88
2022-10-25T15:43:40.279Z,2.17
2022-10-25T15:45:44.107Z,1.95
2022-10-25T15:47:47.579Z,1.63
2022-10-25T15:49:54.300Z,1.95
2022-10-25T15:51:59.725Z,1.50
2022-10-25T15:54:07.197Z,1.80
2022-10-25T15:56:12.408Z,1.55
2022-10-25T15:58:15.878Z,2.25
2022-10-25T16:00:24.146Z,1.50
2022-10-25T16:02:32.605Z,1.42
2022-10-25T16:04:35.954Z,1.52
2022-10-25T16:06:43.093Z,2.38
2022-10-25T16:08:48.946Z,1.90
2022-10-25T16:10:53.526Z,2.10
2022-10-25T16:12:59.619Z,1.70
2022-10-25T16:15:03.494Z,2.20
2022-10-25T16:17:06.948Z,1.45
2022-10-25T16:19:15.273Z,1.60
2022-10-25T16:21:20.894Z,1.98
2022-10-25T16:23:25.531Z,1.90
2022-10-25T16:25:33.329Z,1.40
2022-10-25T16:27:37.018Z,2.47
2022-10-25T16:29:40.004Z,2.25
2022-10-25T16:31:45.058Z,2.13
2022-10-25T16:33:48.297Z,2.08
2022-10-25T16:35:51.407Z,2.47
2022-10-25T16:37:56.455Z,2.58
2022-10-25T16:40:00.813Z,2.70
2022-10-25T16:42:04.424Z,2.28
2022-10-25T16:44:07.666Z,2.75
2022-10-25T16:46:11.738Z,3.10
2022-10-25T16:48:14.649Z,2.13
2022-10-25T16:50:23.041Z,2.13
2022-10-25T16:52:26.045Z,2.67
2022-10-25T16:54:28.955Z,2.35
2022-10-25T16:56:33.322Z,1.85
2022-10-25T16:58:36.595Z,2.63
2022-10-25T17:00:39.692Z,2.47
2022-10-25T17:02:42.802Z,2.70
2022-10-25T17:04:45.983Z,2.72
2022-10-25T17:06:48.893Z,3.45
2022-10-25T17:08:51.920Z,3.90
2022-10-25T17:10:54.955Z,2.90
2022-10-25T17:13:03.196Z,2.72
2022-10-25T17:15:07.185Z,2.97
2022-10-25T17:17:10.279Z,4.45
2022-10-25T17:19:13.967Z,3.90
2022-10-25T17:21:17.965Z,4.60
2022-10-25T17:23:20.895Z,4.28
2022-10-25T17:25:23.966Z,3.65
2022-10-25T17:27:27.988Z,3.85
2022-10-25T17:29:32.442Z,3.10
2022-10-25T17:31:35.473Z,3.00
2022-10-25T17:33:38.811Z,2.80
2022-10-25T17:35:42.318Z,2.58
2022-10-25T17:37:47.223Z,3.38
2022-10-25T17:39:50.546Z,2.83
2022-10-25T17:41:53.473Z,3.55
2022-10-25T17:43:57.039Z,3.38
2022-10-25T17:46:06.127Z,4.00
2022-10-25T17:48:09.162Z,2.92
2022-10-25T17:50:12.916Z,3.55
2022-10-25T17:52:15.998Z,3.38
2022-10-25T17:54:19.466Z,3.67
2022-10-25T17:56:24.365Z,2.63
2022-10-25T17:58:28.352Z,3.08
2022-10-25T18:00:31.337Z,2.80
2022-10-25T18:02:35.874Z,3.50
2022-10-25T18:04:53.780Z,3.58
2022-10-25T18:07:02.684Z,4.03
2022-10-25T18:09:05.758Z,3.70
2022-10-25T18:11:09.847Z,3.43
2022-10-25T18:13:12.754Z,3.55
2022-10-25T18:15:16.003Z,3.20
2022-10-25T18:17:18.989Z,3.67
2022-10-25T18:19:24.306Z,3.80
2022-10-25T18:21:27.876Z,3.43
2022-10-25T18:23:30.836Z,3.30
2022-10-25T18:25:33.781Z,4.00
2022-10-25T18:27:36.782Z,5.07
2022-10-25T18:29:41.013Z,6.10
2022-10-25T18:31:44.016Z,14.40
2022-10-25T18:33:47.919Z,14.47
2022-10-25T18:35:59.411Z,12.80
2022-10-25T18:38:02.359Z,13.13
2022-10-25T18:40:06.458Z,10.60
2022-10-25T18:42:09.390Z,9.30
2022-10-25T18:44:15.167Z,7.67
2022-10-25T18:46:18.745Z,6.90
2022-10-25T18:48:21.690Z,5.30
2022-10-25T18:50:24.623Z,4.63
2022-10-25T18:52:28.945Z,4.23
2022-10-25T18:54:31.932Z,5.07
2022-10-25T18:56:34.856Z,5.43
2022-10-25T18:58:37.891Z,11.10
2022-10-25T19:00:41.506Z,8.53
2022-10-25T19:02:44.550Z,6.63
2022-10-25T19:04:47.619Z,7.20
2022-10-25T19:06:50.593Z,6.17
2022-10-25T19:08:55.082Z,5.77
2022-10-25T19:10:58.161Z,5.00
2022-10-25T19:13:01.207Z,5.73
2022-10-25T19:15:04.746Z,6.80
2022-10-25T19:17:07.762Z,6.53
2022-10-25T19:19:11.974Z,5.07
2022-10-25T19:21:18.380Z,6.10
2022-10-25T19:23:21.447Z,6.97
2022-10-25T19:25:28.712Z,6.43
2022-10-25T19:27:31.756Z,8.20
2022-10-25T19:29:34.904Z,7.53
2022-10-25T19:31:38.314Z,7.73
2022-10-25T19:33:45.911Z,9.03
2022-10-25T19:35:49.376Z,10.70
2022-10-25T19:37:53.926Z,10.10
2022-10-25T19:39:58.997Z,10.30
2022-10-25T19:42:03.586Z,12.33
2022-10-25T19:44:06.669Z,10.87
2022-10-25T19:46:10.368Z,12.27
2022-10-25T19:48:13.367Z,14.67
2022-10-25T19:50:16.576Z,14.73
2022-10-25T19:52:21.834Z,5.67
2022-10-25T19:54:25.093Z,11.80
2022-10-25T19:56:28.027Z,9.53
2022-10-25T19:58:32.469Z,8.80
2022-10-25T20:00:35.657Z,10.50
2022-10-25T20:02:38.728Z,7.43
2022-10-25T20:04:41.737Z,7.00
2022-10-25T20:06:44.916Z,6.40
2022-10-25T20:08:50.954Z,7.30
2022-10-25T20:10:53.988Z,5.20
2022-10-25T20:12:57.023Z,5.27
2022-10-25T20:15:02.027Z,4.50
2022-10-25T20:17:05.232Z,5.07
2022-10-25T20:19:09.535Z,5.73
2022-10-25T20:21:13.970Z,5.40
2022-10-25T20:23:17.349Z,5.00
2022-10-25T20:25:20.389Z,4.90
2022-10-25T20:27:23.618Z,5.10
2022-10-25T20:29:26.925Z,4.80
2022-10-25T20:31:32.834Z,5.10
2022-10-25T20:33:35.742Z,4.60
2022-10-25T20:35:39.190Z,4.20
2022-10-25T20:37:42.063Z,5.30
2022-10-25T20:39:45.030Z,5.03
2022-10-25T20:41:48.026Z,4.10
2022-10-25T20:43:52.359Z,4.13
2022-10-25T20:45:55.360Z,4.70
2022-10-25T20:48:00.490Z,4.00
2022-10-25T20:50:03.806Z,4.27
2022-10-25T20:52:06.753Z,5.20
2022-10-25T20:54:10.302Z,4.40
2022-10-25T20:56:13.821Z,4.20
2022-10-25T20:58:16.759Z,3.50
2022-10-25T21:00:20.716Z,4.23
2022-10-25T21:02:23.795Z,4.03
2022-10-25T21:04:42.391Z,4.50
2022-10-25T21:06:51.339Z,4.90
2022-10-25T21:08:54.321Z,3.87
2022-10-25T21:10:58.736Z,4.07
2022-10-25T21:13:01.714Z,4.50
2022-10-25T21:15:06.949Z,4.07
2022-10-25T21:17:13.833Z,4.40
2022-10-25T21:19:16.812Z,4.07
2022-10-25T21:21:21.508Z,4.23
2022-10-25T21:23:24.629Z,2.97
2022-10-25T21:25:27.578Z,3.00
2022-10-25T21:27:30.510Z,3.10
2022-10-25T21:29:33.422Z,2.63
2022-10-25T21:31:36.355Z,2.10
2022-10-25T21:33:39.712Z,2.27
2022-10-25T21:35:42.652Z,2.30
2022-10-25T21:37:49.169Z,2.70
2022-10-25T21:39:52.560Z,2.50
2022-10-25T21:41:55.504Z,2.07
2022-10-25T21:43:58.852Z,2.03
2022-10-25T21:46:04.564Z,2.70
2022-10-25T21:48:07.794Z,2.40
2022-10-25T21:50:11.336Z,2.50
2022-10-25T21:52:14.171Z,3.03
2022-10-25T21:54:18.795Z,2.83
2022-10-25T21:56:23.523Z,2.40
2022-10-25T21:58:26.372Z,2.40
2022-10-25T22:00:29.406Z,2.00
2022-10-25T22:02:32.532Z,1.90
2022-10-25T22:04:35.635Z,2.30
2022-10-25T22:06:39.645Z,2.00
2022-10-25T22:08:42.917Z,2.10
2022-10-25T22:10:56.019Z,2.40
2022-10-25T22:12:58.899Z,2.40
2022-10-25T22:15:01.963Z,3.70
2022-10-25T22:17:04.921Z,5.20
2022-10-25T22:19:09.274Z,5.47
2022-10-25T22:21:13.405Z,4.37
2022-10-25T22:23:16.286Z,4.20
2022-10-25T22:25:19.237Z,4.23
2022-10-25T22:27:23.494Z,5.53
2022-10-25T22:29:26.622Z,4.27
2022-10-25T22:31:30.590Z,3.70
2022-10-25T22:33:34.068Z,4.53
2022-10-25T22:35:37.053Z,4.30
2022-10-25T22:37:39.924Z,4.13
2022-10-25T22:39:42.844Z,5.13
2022-10-25T22:41:46.272Z,4.13
2022-10-25T22:43:51.054Z,3.67
2022-10-25T22:45:54.196Z,4.23
2022-10-25T22:47:57.051Z,4.80
2022-10-25T22:50:00.193Z,3.50
2022-10-25T22:52:03.167Z,4.00
2022-10-25T22:54:06.367Z,4.47
2022-10-25T22:56:12.180Z,3.97
2022-10-25T22:58:15.102Z,4.30
2022-10-25T23:00:19.819Z,4.67
2022-10-25T23:02:22.834Z,4.00
2022-10-25T23:04:25.850Z,4.50
2022-10-25T23:06:30.571Z,3.37
2022-10-25T23:08:33.801Z,3.53
2022-10-25T23:10:36.727Z,3.10
2022-10-25T23:12:39.672Z,3.77
2022-10-25T23:14:42.618Z,3.63
2022-10-25T23:16:47.295Z,3.53
2022-10-25T23:18:50.296Z,4.33
2022-10-25T23:20:54.077Z,3.90
2022-10-25T23:22:56.942Z,3.40
2022-10-25T23:25:00.057Z,3.50
2022-10-25T23:27:02.989Z,3.40
2022-10-25T23:29:06.160Z,3.40
2022-10-25T23:31:10.891Z,3.60
2022-10-25T23:33:15.509Z,3.67
2022-10-25T23:35:21.288Z,3.23
2022-10-25T23:37:24.335Z,3.70
2022-10-25T23:39:27.419Z,3.20
2022-10-25T23:41:30.363Z,3.23
2022-10-25T23:43:33.878Z,2.50
2022-10-25T23:45:36.765Z,3.20
2022-10-25T23:47:40.913Z,3.00
2022-10-25T23:49:45.283Z,3.23
2022-10-25T23:51:48.321Z,3.00
2022-10-25T23:53:52.043Z,2.50
2022-10-25T23:55:55.474Z,3.23
2022-10-25T23:57:58.735Z,3.67
